createdAt,value
2023-09-18T00:00:13.702Z,14.33
2023-09-18T00:01:16.285Z,16.60
2023-09-18T00:02:18.395Z,16.07
2023-09-18T00:03:22.696Z,14.77
2023-09-18T00:04:24.941Z,15.98
2023-09-18T00:05:27.358Z,14.13
2023-09-18T00:06:29.452Z,13.20
2023-09-18T00:07:31.718Z,15.47
2023-09-18T00:08:35.586Z,13.86
2023-09-18T00:09:38.403Z,15.97
2023-09-18T00:10:41.343Z,14.93
2023-09-18T00:11:43.305Z,16.47
2023-09-18T00:12:45.228Z,15.73
2023-09-18T00:13:47.264Z,15.42
2023-09-18T00:14:51.060Z,14.83
2023-09-18T00:15:55.751Z,15.36
2023-09-18T00:16:59.464Z,14.59
2023-09-18T00:18:02.618Z,15.35
2023-09-18T00:19:05.114Z,14.02
2023-09-18T00:20:08.526Z,14.66
2023-09-18T00:21:11.793Z,14.73
2023-09-18T00:22:13.929Z,12.76
2023-09-18T00:23:15.896Z,13.54
2023-09-18T00:24:17.872Z,14.73
2023-09-18T00:25:19.930Z,15.01
2023-09-18T00:26:23.109Z,12.58
2023-09-18T00:27:25.223Z,14.16
2023-09-18T00:28:27.370Z,13.59
2023-09-18T00:29:30.417Z,13.94
2023-09-18T00:30:33.051Z,15.97
2023-09-18T00:31:34.991Z,11.73
2023-09-18T00:32:39.103Z,14.00
2023-09-18T00:33:41.435Z,15.66
2023-09-18T00:34:43.589Z,13.57
2023-09-18T00:35:47.022Z,14.19
2023-09-18T00:36:49.472Z,14.43
2023-09-18T00:37:52.843Z,14.05
2023-09-18T00:38:55.039Z,13.36
2023-09-18T00:39:57.148Z,14.72
2023-09-18T00:40:59.359Z,16.54
2023-09-18T00:42:01.356Z,14.56
2023-09-18T00:43:03.629Z,16.33
2023-09-18T00:44:08.293Z,14.91
2023-09-18T00:45:10.598Z,15.28
2023-09-18T00:46:13.196Z,13.72
2023-09-18T00:47:17.525Z,14.85
2023-09-18T00:48:20.410Z,15.93
2023-09-18T00:49:24.725Z,17.07
2023-09-18T00:50:29.023Z,15.24
2023-09-18T00:51:33.022Z,15.41
2023-09-18T00:52:35.426Z,16.46
2023-09-18T00:53:38.459Z,15.44
2023-09-18T00:54:41.249Z,14.98
2023-09-18T00:55:44.502Z,16.21
2023-09-18T00:56:48.985Z,17.21
2023-09-18T00:57:53.676Z,16.72
2023-09-18T00:58:55.855Z,15.04
2023-09-18T00:59:58.405Z,13.83
2023-09-18T01:01:03.480Z,16.06
2023-09-18T01:02:05.968Z,15.72
2023-09-18T01:03:10.147Z,16.16
2023-09-18T01:04:13.162Z,16.44
2023-09-18T01:05:16.478Z,15.56
2023-09-18T01:06:20.081Z,17.12
2023-09-18T01:07:22.177Z,16.71
2023-09-18T01:08:24.235Z,16.83
2023-09-18T01:09:27.595Z,14.96
2023-09-18T01:10:36.268Z,16.21
2023-09-18T01:11:56.972Z,15.77
2023-09-18T01:13:08.840Z,14.21
2023-09-18T01:14:23.858Z,15.64
2023-09-18T01:15:29.767Z,15.47
2023-09-18T01:17:58.546Z,16.29
2023-09-18T01:19:00.680Z,15.03
2023-09-18T01:20:04.828Z,15.27
2023-09-18T01:21:06.860Z,15.20
2023-09-18T01:22:10.643Z,16.43
2023-09-18T01:23:12.745Z,15.98
2023-09-18T01:24:14.873Z,17.76
2023-09-18T01:25:17.113Z,16.59
2023-09-18T01:26:19.187Z,13.73
2023-09-18T01:27:24.497Z,13.61
2023-09-18T01:28:26.404Z,14.39
2023-09-18T01:29:28.357Z,18.79
2023-09-18T01:30:32.477Z,16.53
2023-09-18T01:31:35.378Z,14.96
2023-09-18T01:32:38.653Z,17.90
2023-09-18T01:33:43.644Z,18.73
2023-09-18T01:34:48.765Z,17.43
2023-09-18T01:35:54.465Z,13.75
2023-09-18T01:36:58.253Z,16.33
2023-09-18T01:38:01.244Z,15.82
2023-09-18T01:39:04.559Z,16.46
2023-09-18T01:40:08.629Z,18.19
2023-09-18T01:41:10.910Z,20.01
2023-09-18T01:42:13.530Z,18.50
2023-09-18T01:43:19.128Z,18.00
2023-09-18T01:44:21.329Z,20.04
2023-09-18T01:45:23.521Z,18.07
2023-09-18T01:46:26.896Z,17.91
2023-09-18T01:47:28.882Z,19.07
2023-09-18T01:48:31.103Z,19.50
2023-09-18T01:49:36.014Z,17.65
2023-09-18T01:50:38.368Z,17.66
2023-09-18T01:51:40.367Z,21.47
2023-09-18T01:52:42.386Z,19.50
2023-09-18T01:53:44.321Z,21.13
2023-09-18T01:54:47.928Z,20.87
2023-09-18T01:55:49.874Z,19.96
2023-09-18T01:56:52.701Z,22.92
2023-09-18T01:57:54.623Z,20.39
2023-09-18T01:58:56.534Z,17.05
2023-09-18T01:59:59.157Z,16.41
2023-09-18T02:01:02.048Z,17.54
2023-09-18T02:02:07.227Z,15.91
2023-09-18T02:03:21.008Z,15.30
2023-09-18T02:04:30.885Z,16.81
2023-09-18T02:05:19.758Z,20.90
2023-09-18T02:06:22.291Z,19.98
2023-09-18T02:07:24.389Z,19.29
2023-09-18T02:08:26.580Z,25.65
2023-09-18T02:09:28.574Z,24.51
2023-09-18T02:10:30.621Z,25.75
2023-09-18T02:11:32.569Z,23.85
2023-09-18T02:12:35.826Z,23.75
2023-09-18T02:13:37.752Z,22.69
2023-09-18T02:14:39.723Z,21.26
2023-09-18T02:15:41.736Z,20.29
2023-09-18T02:16:44.151Z,22.29
2023-09-18T02:17:46.237Z,23.17
2023-09-18T02:18:49.175Z,25.16
2023-09-18T02:19:51.075Z,26.35
2023-09-18T02:20:53.100Z,23.00
2023-09-18T02:21:57.384Z,22.18
2023-09-18T02:22:59.443Z,24.48
2023-09-18T02:24:03.497Z,23.54
2023-09-18T02:25:06.616Z,23.27
2023-09-18T02:26:08.813Z,23.34
2023-09-18T02:27:10.807Z,23.55
2023-09-18T02:28:12.885Z,24.79
2023-09-18T02:29:15.233Z,26.45
2023-09-18T02:30:19.298Z,24.77
2023-09-18T02:31:23.231Z,22.74
2023-09-18T02:32:25.395Z,22.04
2023-09-18T02:33:28.003Z,26.17
2023-09-18T02:34:30.478Z,21.73
2023-09-18T02:35:32.723Z,21.31
2023-09-18T02:36:35.171Z,22.94
2023-09-18T02:37:38.388Z,21.60
2023-09-18T02:38:42.392Z,23.27
2023-09-18T02:39:44.359Z,23.41
2023-09-18T02:40:46.566Z,22.90
2023-09-18T02:41:48.998Z,21.85
2023-09-18T02:42:51.309Z,21.78
2023-09-18T02:43:53.393Z,20.01
2023-09-18T02:44:57.600Z,19.48
2023-09-18T02:45:59.647Z,18.49
2023-09-18T02:47:01.783Z,17.68
2023-09-18T02:48:05.078Z,18.85
2023-09-18T02:49:07.192Z,17.14
2023-09-18T02:50:10.698Z,20.19
2023-09-18T02:51:13.084Z,18.57
2023-09-18T02:52:15.116Z,18.04
2023-09-18T02:53:19.801Z,17.69
2023-09-18T02:54:22.030Z,17.84
2023-09-18T02:55:24.239Z,16.11
2023-09-18T02:56:26.599Z,16.75
2023-09-18T02:57:28.621Z,16.53
2023-09-18T02:58:30.752Z,22.37
2023-09-18T02:59:33.050Z,17.49
2023-09-18T03:00:43.855Z,19.27
2023-09-18T03:01:39.383Z,20.24
2023-09-18T03:02:41.460Z,18.19
2023-09-18T03:03:43.855Z,16.88
2023-09-18T03:04:46.178Z,19.63
2023-09-18T03:05:48.320Z,20.66
2023-09-18T03:06:50.365Z,16.87
2023-09-18T03:07:52.456Z,15.70
2023-09-18T03:08:54.680Z,15.03
2023-09-18T03:09:56.766Z,19.31
2023-09-18T03:10:59.425Z,18.15
2023-09-18T03:12:01.917Z,19.01
2023-09-18T03:13:05.809Z,16.71
2023-09-18T03:14:07.876Z,19.82
2023-09-18T03:15:10.547Z,19.97
2023-09-18T03:16:13.657Z,20.77
2023-09-18T03:17:15.865Z,19.91
2023-09-18T03:18:20.465Z,19.52
2023-09-18T03:19:22.613Z,21.31
2023-09-18T03:20:27.284Z,22.25
2023-09-18T03:21:29.353Z,22.60
2023-09-18T03:22:31.641Z,19.93
2023-09-18T03:23:34.198Z,23.27
2023-09-18T03:24:36.523Z,22.01
2023-09-18T03:25:48.853Z,20.37
2023-09-18T03:26:42.435Z,18.79
2023-09-18T03:27:45.617Z,22.64
2023-09-18T03:28:48.123Z,20.92
2023-09-18T03:29:50.112Z,20.79
2023-09-18T03:30:52.340Z,21.10
2023-09-18T03:31:54.266Z,23.29
2023-09-18T03:32:56.430Z,25.59
2023-09-18T03:33:58.450Z,20.82
2023-09-18T03:35:00.446Z,21.41
2023-09-18T03:36:02.977Z,24.01
2023-09-18T03:37:04.983Z,25.78
2023-09-18T03:38:07.103Z,22.13
2023-09-18T03:39:09.950Z,21.35
2023-09-18T03:40:14.015Z,22.33
2023-09-18T03:41:16.142Z,22.29
2023-09-18T03:42:18.176Z,21.89
2023-09-18T03:43:20.224Z,21.51
2023-09-18T03:44:22.202Z,24.31
2023-09-18T03:45:24.202Z,20.63
2023-09-18T03:46:26.448Z,22.49
2023-09-18T03:47:28.408Z,26.63
2023-09-18T03:48:31.652Z,22.67
2023-09-18T03:49:36.604Z,23.08
2023-09-18T03:50:41.156Z,25.37
2023-09-18T03:51:43.890Z,20.08
2023-09-18T03:52:45.820Z,21.69
2023-09-18T03:53:47.768Z,22.89
2023-09-18T03:54:49.865Z,23.63
2023-09-18T03:55:51.805Z,25.10
2023-09-18T03:56:53.945Z,22.27
2023-09-18T03:57:55.954Z,29.06
2023-09-18T03:58:57.884Z,23.54
2023-09-18T03:59:59.770Z,22.48
2023-09-18T04:01:02.088Z,23.00
2023-09-18T04:02:04.724Z,22.46
2023-09-18T04:03:06.928Z,21.92
2023-09-18T04:04:09.146Z,25.17
2023-09-18T04:05:11.241Z,31.49
2023-09-18T04:06:13.611Z,28.05
2023-09-18T04:07:15.659Z,31.97
2023-09-18T04:08:18.680Z,30.89
2023-09-18T04:09:22.952Z,21.46
2023-09-18T04:10:26.905Z,23.17
2023-09-18T04:11:28.870Z,23.94
2023-09-18T04:12:30.893Z,26.77
2023-09-18T04:13:32.815Z,45.49
2023-09-18T04:14:36.680Z,50.22
2023-09-18T04:15:39.043Z,42.90
2023-09-18T04:16:41.146Z,30.83
2023-09-18T04:17:43.128Z,26.77
2023-09-18T04:18:45.734Z,26.55
2023-09-18T04:19:47.679Z,22.71
2023-09-18T04:20:49.740Z,25.29
2023-09-18T04:21:53.958Z,22.61
2023-09-18T04:23:22.566Z,18.38
2023-09-18T04:24:29.565Z,18.86
2023-09-18T04:25:31.510Z,18.46
2023-09-18T04:26:33.941Z,21.59
2023-09-18T04:27:36.051Z,21.61
2023-09-18T04:28:37.956Z,20.83
2023-09-18T04:29:39.902Z,19.21
2023-09-18T04:30:42.095Z,18.61
2023-09-18T04:31:44.534Z,18.06
2023-09-18T04:32:46.799Z,19.75
2023-09-18T04:33:48.971Z,19.76
2023-09-18T04:34:51.141Z,19.41
2023-09-18T04:35:55.251Z,25.92
2023-09-18T04:36:57.298Z,20.14
2023-09-18T04:38:01.051Z,19.91
2023-09-18T04:39:04.605Z,19.21
2023-09-18T04:40:08.630Z,22.09
2023-09-18T04:41:10.629Z,19.95
2023-09-18T04:42:12.766Z,21.00
2023-09-18T04:43:16.856Z,20.23
2023-09-18T04:44:19.002Z,18.65
2023-09-18T04:45:21.206Z,19.78
2023-09-18T04:46:25.588Z,18.92
2023-09-18T04:47:27.667Z,17.42
2023-09-18T04:48:30.614Z,19.62
2023-09-18T04:49:35.713Z,20.66
2023-09-18T04:50:37.844Z,19.60
2023-09-18T04:51:40.148Z,21.18
2023-09-18T04:52:42.179Z,19.24
2023-09-18T04:53:44.439Z,17.37
2023-09-18T04:54:46.706Z,17.97
2023-09-18T04:55:48.809Z,20.04
2023-09-18T04:56:51.157Z,16.79
2023-09-18T04:57:53.108Z,17.53
2023-09-18T04:58:55.183Z,18.83
2023-09-18T05:00:10.152Z,15.05
2023-09-18T05:01:01.543Z,16.46
2023-09-18T05:02:03.707Z,18.13
2023-09-18T05:03:05.886Z,17.97
2023-09-18T05:04:07.953Z,16.47
2023-09-18T05:05:10.236Z,17.96
2023-09-18T05:06:14.889Z,18.13
2023-09-18T05:07:17.196Z,16.18
2023-09-18T05:08:20.372Z,17.07
2023-09-18T05:09:22.417Z,16.59
2023-09-18T05:10:25.516Z,15.69
2023-09-18T05:11:27.620Z,15.54
2023-09-18T05:12:29.770Z,17.25
2023-09-18T05:13:31.765Z,16.96
2023-09-18T05:14:34.260Z,17.09
2023-09-18T05:15:36.345Z,19.12
2023-09-18T05:16:38.410Z,14.91
2023-09-18T05:17:45.951Z,14.54
2023-09-18T05:18:48.304Z,15.92
2023-09-18T05:19:50.879Z,14.29
2023-09-18T05:20:54.758Z,15.57
2023-09-18T05:21:57.259Z,16.11
2023-09-18T05:22:59.616Z,18.89
2023-09-18T05:24:01.704Z,18.01
2023-09-18T05:25:04.965Z,15.59
2023-09-18T05:26:07.169Z,16.00
2023-09-18T05:27:09.581Z,15.31
2023-09-18T05:28:11.611Z,18.65
2023-09-18T05:29:13.742Z,17.26
2023-09-18T05:30:22.102Z,21.89
2023-09-18T05:31:24.123Z,17.89
2023-09-18T05:32:26.426Z,18.26
2023-09-18T05:33:28.636Z,15.69
2023-09-18T05:34:30.685Z,18.66
2023-09-18T05:35:35.072Z,16.52
2023-09-18T05:36:38.787Z,16.43
2023-09-18T05:37:43.900Z,15.99
2023-09-18T05:38:45.987Z,17.11
2023-09-18T05:39:49.268Z,14.80
2023-09-18T05:40:51.393Z,16.76
2023-09-18T05:41:53.300Z,17.57
2023-09-18T05:42:56.036Z,15.75
2023-09-18T05:43:58.084Z,15.99
2023-09-18T05:45:00.141Z,17.35
2023-09-18T05:46:02.800Z,16.90
2023-09-18T05:47:05.438Z,16.64
2023-09-18T05:48:07.758Z,21.07
2023-09-18T05:49:09.767Z,17.74
2023-09-18T05:50:13.229Z,14.73
2023-09-18T05:51:15.231Z,17.14
2023-09-18T05:52:17.196Z,16.26
2023-09-18T05:53:19.234Z,15.00
2023-09-18T05:54:22.432Z,16.45
2023-09-18T05:55:24.453Z,17.05
2023-09-18T05:56:26.639Z,17.13
2023-09-18T05:57:29.845Z,13.60
2023-09-18T05:58:32.428Z,14.81
2023-09-18T05:59:34.469Z,16.20
2023-09-18T06:00:37.309Z,13.83
2023-09-18T06:01:39.318Z,14.27
2023-09-18T06:02:42.612Z,14.27
2023-09-18T06:03:44.885Z,13.87
2023-09-18T06:04:47.211Z,16.90
2023-09-18T06:05:49.382Z,14.65
2023-09-18T06:06:51.677Z,15.08
2023-09-18T06:07:53.744Z,17.95
2023-09-18T06:08:55.851Z,13.79
2023-09-18T06:10:00.566Z,16.59
2023-09-18T06:11:02.517Z,14.15
2023-09-18T06:12:05.419Z,13.19
2023-09-18T06:13:07.441Z,14.88
2023-09-18T06:14:10.584Z,14.02
2023-09-18T06:15:12.546Z,17.64
2023-09-18T06:16:16.159Z,13.06
2023-09-18T06:17:19.235Z,12.58
2023-09-18T06:18:23.369Z,14.02
2023-09-18T06:19:25.473Z,16.70
2023-09-18T06:20:27.678Z,14.98
2023-09-18T06:21:29.624Z,13.86
2023-09-18T06:22:31.550Z,13.44
2023-09-18T06:23:34.575Z,16.65
2023-09-18T06:24:36.821Z,12.32
2023-09-18T06:25:40.572Z,13.69
2023-09-18T06:26:42.679Z,13.35
2023-09-18T06:27:44.753Z,11.69
2023-09-18T06:28:46.745Z,13.15
2023-09-18T06:29:48.668Z,12.39
2023-09-18T06:30:52.910Z,14.71
2023-09-18T06:31:55.074Z,14.34
2023-09-18T06:32:57.864Z,13.18
2023-09-18T06:33:59.904Z,14.90
2023-09-18T06:35:02.211Z,12.54
2023-09-18T06:36:07.602Z,14.51
2023-09-18T06:37:09.761Z,12.90
2023-09-18T06:38:11.700Z,13.49
2023-09-18T06:39:13.892Z,12.98
2023-09-18T06:40:18.839Z,16.09
2023-09-18T06:41:21.148Z,12.19
2023-09-18T06:42:23.690Z,13.43
2023-09-18T06:43:25.618Z,12.83
2023-09-18T06:44:27.713Z,12.05
2023-09-18T06:45:31.577Z,11.81
2023-09-18T06:46:33.951Z,10.82
2023-09-18T06:47:36.105Z,10.42
2023-09-18T06:48:38.305Z,11.88
2023-09-18T06:49:40.510Z,9.93
2023-09-18T06:50:43.219Z,10.88
2023-09-18T06:51:45.322Z,9.81
2023-09-18T06:52:47.295Z,12.22
2023-09-18T06:53:49.433Z,9.86
2023-09-18T06:54:51.775Z,10.20
2023-09-18T06:55:54.402Z,10.09
2023-09-18T06:56:56.471Z,8.97
2023-09-18T06:57:58.900Z,10.79
2023-09-18T06:59:00.933Z,11.18
2023-09-18T07:00:03.966Z,12.82
2023-09-18T07:01:06.207Z,16.78
2023-09-18T07:02:08.627Z,16.90
2023-09-18T07:03:10.857Z,12.98
2023-09-18T07:04:13.197Z,15.51
2023-09-18T07:05:15.606Z,16.18
2023-09-18T07:06:18.188Z,18.13
2023-09-18T07:07:21.119Z,12.76
2023-09-18T07:08:23.190Z,9.29
2023-09-18T07:09:25.293Z,9.53
2023-09-18T07:10:27.573Z,10.39
2023-09-18T07:11:29.601Z,8.21
2023-09-18T07:12:33.258Z,8.41
2023-09-18T07:13:35.309Z,7.55
2023-09-18T07:14:37.341Z,8.42
2023-09-18T07:15:39.502Z,7.57
2023-09-18T07:16:41.596Z,8.57
2023-09-18T07:17:43.668Z,8.55
2023-09-18T07:18:45.732Z,10.06
2023-09-18T07:19:48.354Z,8.01
2023-09-18T07:20:50.704Z,9.58
2023-09-18T07:21:52.999Z,9.83
2023-09-18T07:22:55.085Z,9.69
2023-09-18T07:23:57.106Z,8.25
2023-09-18T07:24:59.036Z,10.91
2023-09-18T07:26:01.054Z,8.23
2023-09-18T07:27:03.436Z,10.57
2023-09-18T07:29:17.917Z,10.53
2023-09-18T07:30:20.152Z,8.90
2023-09-18T07:31:22.263Z,10.55
2023-09-18T07:32:36.864Z,10.85
2023-09-18T07:33:29.243Z,8.50
2023-09-18T07:34:32.478Z,9.15
2023-09-18T07:35:36.507Z,8.49
2023-09-18T07:36:38.629Z,8.64
2023-09-18T07:37:41.567Z,8.58
2023-09-18T07:38:43.541Z,9.27
2023-09-18T07:39:45.532Z,10.57
2023-09-18T07:40:49.306Z,11.27
2023-09-18T07:41:51.314Z,12.64
2023-09-18T07:42:53.676Z,9.29
2023-09-18T07:43:55.581Z,9.27
2023-09-18T07:44:59.325Z,9.15
2023-09-18T07:46:01.771Z,9.34
2023-09-18T07:47:04.310Z,12.39
2023-09-18T07:48:07.702Z,8.96
2023-09-18T07:49:09.949Z,10.70
2023-09-18T07:50:13.510Z,9.33
2023-09-18T07:51:15.711Z,10.83
2023-09-18T07:52:18.210Z,6.92
2023-09-18T07:53:20.681Z,8.18
2023-09-18T07:54:23.030Z,8.73
2023-09-18T07:55:24.960Z,8.63
2023-09-18T07:56:27.165Z,8.00
2023-09-18T07:57:30.391Z,8.83
2023-09-18T07:58:32.310Z,8.17
2023-09-18T07:59:35.226Z,11.89
2023-09-18T08:00:37.808Z,8.00
2023-09-18T08:01:39.917Z,12.79
2023-09-18T08:02:42.346Z,8.55
2023-09-18T08:03:44.731Z,12.27
2023-09-18T08:04:46.934Z,8.62
2023-09-18T08:05:55.336Z,11.61
2023-09-18T08:06:57.503Z,14.11
2023-09-18T08:07:59.414Z,13.09
2023-09-18T08:09:02.591Z,10.77
2023-09-18T08:10:06.157Z,11.76
2023-09-18T08:11:08.843Z,8.59
2023-09-18T08:12:10.957Z,7.91
2023-09-18T08:13:13.689Z,9.16
2023-09-18T08:14:16.045Z,9.96
2023-09-18T08:15:20.781Z,10.24
2023-09-18T08:16:24.026Z,8.86
2023-09-18T08:17:27.301Z,13.81
2023-09-18T08:18:31.521Z,8.49
2023-09-18T08:19:35.358Z,10.31
2023-09-18T08:20:44.093Z,9.42
2023-09-18T08:21:47.678Z,6.23
2023-09-18T08:22:49.717Z,8.44
2023-09-18T08:23:52.072Z,7.45
2023-09-18T08:24:54.111Z,11.73
2023-09-18T08:25:56.344Z,10.89
2023-09-18T08:26:58.339Z,10.42
2023-09-18T08:28:02.254Z,9.71
2023-09-18T08:29:05.114Z,9.85
2023-09-18T08:30:08.909Z,11.96
2023-09-18T08:31:11.067Z,7.74
2023-09-18T08:32:13.335Z,7.47
2023-09-18T08:33:15.462Z,7.26
2023-09-18T08:34:17.717Z,10.41
2023-09-18T08:35:20.539Z,9.95
2023-09-18T08:36:22.989Z,7.41
2023-09-18T08:37:25.008Z,8.63
2023-09-18T08:38:29.293Z,6.64
2023-09-18T08:39:31.776Z,9.57
2023-09-18T08:40:35.661Z,6.37
2023-09-18T08:41:41.684Z,7.94
2023-09-18T08:42:48.604Z,8.34
2023-09-18T08:43:52.799Z,7.13
2023-09-18T08:44:57.553Z,7.57
2023-09-18T08:46:00.362Z,7.69
2023-09-18T08:47:04.119Z,8.09
2023-09-18T08:48:09.310Z,11.90
2023-09-18T08:49:14.268Z,7.00
2023-09-18T08:50:17.952Z,6.38
2023-09-18T08:51:21.771Z,7.13
2023-09-18T08:52:26.401Z,7.61
2023-09-18T08:53:31.858Z,8.18
2023-09-18T08:54:33.991Z,8.89
2023-09-18T08:55:36.643Z,11.04
2023-09-18T08:56:39.221Z,7.02
2023-09-18T08:57:44.980Z,8.26
2023-09-18T08:58:47.926Z,6.71
2023-09-18T08:59:54.377Z,8.37
2023-09-18T09:00:56.949Z,7.44
2023-09-18T09:01:59.816Z,6.49
2023-09-18T09:03:04.429Z,7.86
2023-09-18T09:04:06.450Z,5.52
2023-09-18T09:05:08.589Z,4.74
2023-09-18T09:06:12.764Z,8.28
2023-09-18T09:07:17.232Z,9.23
2023-09-18T09:08:19.438Z,7.66
2023-09-18T09:09:21.935Z,7.07
2023-09-18T09:10:24.245Z,5.82
2023-09-18T09:11:26.352Z,6.11
2023-09-18T09:12:49.178Z,7.17
2023-09-18T09:15:23.359Z,8.82
2023-09-18T09:16:26.697Z,6.91
2023-09-18T09:17:31.796Z,7.00
2023-09-18T09:18:33.949Z,8.80
2023-09-18T09:19:39.034Z,5.42
2023-09-18T09:20:41.521Z,6.96
2023-09-18T09:21:45.200Z,6.81
2023-09-18T09:22:47.278Z,10.14
2023-09-18T09:23:51.953Z,6.63
2023-09-18T09:24:57.774Z,6.92
2023-09-18T09:26:17.212Z,7.71
2023-09-18T09:27:19.722Z,5.16
2023-09-18T09:28:31.552Z,6.85
2023-09-18T09:29:34.368Z,8.74
2023-09-18T09:30:37.330Z,8.69
2023-09-18T09:31:39.819Z,6.74
2023-09-18T09:32:45.894Z,7.67
2023-09-18T09:33:52.934Z,7.61
2023-09-18T09:34:59.542Z,6.93
2023-09-18T09:36:05.001Z,6.49
2023-09-18T09:37:07.276Z,7.73
2023-09-18T09:38:11.141Z,6.85
2023-09-18T09:39:13.501Z,7.08
2023-09-18T09:40:18.918Z,10.17
2023-09-18T09:41:24.119Z,8.12
2023-09-18T09:42:26.711Z,7.00
2023-09-18T09:43:34.091Z,8.22
2023-09-18T09:44:36.821Z,7.07
2023-09-18T09:45:41.700Z,7.32
2023-09-18T09:46:50.010Z,10.56
2023-09-18T09:47:56.940Z,7.06
2023-09-18T09:49:04.649Z,6.68
2023-09-18T09:50:10.918Z,4.88
2023-09-18T09:51:16.822Z,5.72
2023-09-18T09:52:19.514Z,5.53
2023-09-18T09:53:45.241Z,4.84
2023-09-18T09:54:47.596Z,9.47
2023-09-18T09:57:06.769Z,7.97
2023-09-18T09:58:10.845Z,12.67
2023-09-18T09:59:14.538Z,13.42
2023-09-18T10:00:17.109Z,18.35
2023-09-18T10:01:20.172Z,8.14
2023-09-18T10:02:24.221Z,9.39
2023-09-18T10:03:28.365Z,6.79
2023-09-18T10:04:34.437Z,5.75
2023-09-18T10:05:42.805Z,6.58
2023-09-18T10:06:54.575Z,6.85
2023-09-18T10:09:02.630Z,4.11
2023-09-18T10:10:08.406Z,6.22
2023-09-18T10:11:20.838Z,7.02
2023-09-18T10:12:20.078Z,5.43
2023-09-18T10:13:35.101Z,6.59
2023-09-18T10:14:55.589Z,5.68
2023-09-18T10:15:44.535Z,10.18
2023-09-18T10:16:53.376Z,4.72
2023-09-18T10:17:58.836Z,6.05
2023-09-18T10:19:16.576Z,4.54
2023-09-18T10:20:19.694Z,5.42
2023-09-18T10:21:46.443Z,5.03
2023-09-18T10:24:08.240Z,6.01
2023-09-18T10:25:21.918Z,6.79
2023-09-18T10:26:26.284Z,7.07
2023-09-18T10:27:30.164Z,5.31
2023-09-18T10:28:32.850Z,9.78
2023-09-18T10:29:37.429Z,11.05
2023-09-18T10:30:41.176Z,6.63
2023-09-18T10:31:45.007Z,6.21
2023-09-18T10:32:47.161Z,4.25
2023-09-18T10:33:51.778Z,9.01
2023-09-18T10:34:54.336Z,8.13
2023-09-18T10:35:57.382Z,5.76
2023-09-18T10:37:00.754Z,6.53
2023-09-18T10:38:05.946Z,11.42
2023-09-18T10:39:10.611Z,11.01
2023-09-18T10:40:13.449Z,5.75
2023-09-18T10:41:19.073Z,11.33
2023-09-18T10:42:23.004Z,9.29
2023-09-18T10:43:24.968Z,8.12
2023-09-18T10:44:27.214Z,13.91
2023-09-18T10:45:29.960Z,9.39
2023-09-18T10:46:32.557Z,22.99
2023-09-18T10:47:35.817Z,11.59
2023-09-18T10:48:41.936Z,16.22
2023-09-18T10:49:45.106Z,7.02
2023-09-18T10:50:47.687Z,10.45
2023-09-18T10:51:55.334Z,8.59
2023-09-18T10:53:01.004Z,5.29
2023-09-18T10:54:03.871Z,7.18
2023-09-18T10:55:07.346Z,9.66
2023-09-18T10:56:10.336Z,8.90
2023-09-18T10:57:12.733Z,12.07
2023-09-18T10:58:18.490Z,10.09
2023-09-18T10:59:23.857Z,8.17
2023-09-18T11:00:28.833Z,8.64
2023-09-18T11:01:31.328Z,6.20
2023-09-18T11:02:36.249Z,13.85
2023-09-18T11:03:39.488Z,5.90
2023-09-18T11:04:43.679Z,7.54
2023-09-18T11:05:47.260Z,7.97
2023-09-18T11:06:59.558Z,5.41
2023-09-18T11:08:34.332Z,6.12
2023-09-18T11:09:43.396Z,7.18
2023-09-18T11:11:08.895Z,4.41
2023-09-18T11:12:13.456Z,5.19
2023-09-18T11:13:19.253Z,7.64
2023-09-18T11:14:21.259Z,5.48
2023-09-18T11:15:31.863Z,6.80
2023-09-18T11:16:37.259Z,8.89
2023-09-18T11:17:41.480Z,7.34
2023-09-18T11:18:47.577Z,6.53
2023-09-18T11:19:49.676Z,4.92
2023-09-18T11:21:12.269Z,7.13
2023-09-18T11:22:14.312Z,5.19
2023-09-18T11:23:17.984Z,6.51
2023-09-18T11:24:23.177Z,7.57
2023-09-18T11:25:38.709Z,6.04
2023-09-18T11:26:41.985Z,8.99
2023-09-18T11:27:55.185Z,4.42
2023-09-18T11:28:59.807Z,7.52
2023-09-18T11:30:02.246Z,5.47
2023-09-18T11:31:05.226Z,6.19
2023-09-18T11:32:08.500Z,4.82
2023-09-18T11:33:11.212Z,8.50
2023-09-18T11:34:27.869Z,5.76
2023-09-18T11:35:30.399Z,7.37
2023-09-18T11:36:35.292Z,6.13
2023-09-18T11:37:37.383Z,6.52
2023-09-18T11:38:59.714Z,8.25
2023-09-18T11:40:01.097Z,4.97
2023-09-18T11:41:26.479Z,5.18
2023-09-18T11:42:30.754Z,5.59
2023-09-18T11:43:33.505Z,5.69
2023-09-18T11:44:38.188Z,4.58
2023-09-18T11:45:43.398Z,6.47
2023-09-18T11:46:47.637Z,6.38
2023-09-18T11:47:51.058Z,5.39
2023-09-18T11:48:53.362Z,6.59
2023-09-18T11:49:59.966Z,5.19
2023-09-18T11:51:02.936Z,5.76
2023-09-18T11:52:06.468Z,7.53
2023-09-18T11:53:09.016Z,6.78
2023-09-18T11:54:11.457Z,5.34
2023-09-18T11:55:14.026Z,6.41
2023-09-18T11:56:19.158Z,5.31
2023-09-18T11:57:23.046Z,5.16
2023-09-18T11:58:25.172Z,4.74
2023-09-18T11:59:37.986Z,6.04
2023-09-18T12:00:41.009Z,6.68
2023-09-18T12:01:43.397Z,7.10
2023-09-18T12:02:45.620Z,8.29
2023-09-18T12:03:56.075Z,4.22
2023-09-18T12:04:58.144Z,7.01
2023-09-18T12:06:03.054Z,5.35
2023-09-18T12:07:06.041Z,6.85
2023-09-18T12:08:08.371Z,4.59
2023-09-18T12:09:14.363Z,4.73
2023-09-18T12:10:19.306Z,7.04
2023-09-18T12:11:23.639Z,5.09
2023-09-18T12:12:28.717Z,4.32
2023-09-18T12:13:32.094Z,6.83
2023-09-18T12:14:37.047Z,4.93
2023-09-18T12:15:39.307Z,3.78
2023-09-18T12:16:43.751Z,5.70
2023-09-18T12:17:47.268Z,5.75
2023-09-18T12:18:50.307Z,6.95
2023-09-18T12:19:54.039Z,6.67
2023-09-18T12:20:58.906Z,7.64
2023-09-18T12:22:01.796Z,8.07
2023-09-18T12:23:04.393Z,5.09
2023-09-18T12:24:06.693Z,7.10
2023-09-18T12:25:12.141Z,5.37
2023-09-18T12:26:16.591Z,6.87
2023-09-18T12:27:20.987Z,4.95
2023-09-18T12:28:23.285Z,5.59
2023-09-18T12:29:25.519Z,6.03
2023-09-18T12:30:27.948Z,4.41
2023-09-18T12:31:32.182Z,5.19
2023-09-18T12:32:41.289Z,6.07
2023-09-18T12:33:45.064Z,5.39
2023-09-18T12:34:47.302Z,3.81
2023-09-18T12:35:52.710Z,4.42
2023-09-18T12:36:55.231Z,5.89
2023-09-18T12:39:10.396Z,7.24
2023-09-18T12:40:30.907Z,7.82
2023-09-18T12:41:33.650Z,6.82
2023-09-18T12:42:39.730Z,5.21
2023-09-18T12:43:43.392Z,4.53
2023-09-18T12:44:51.277Z,7.37
2023-09-18T12:45:55.774Z,5.78
2023-09-18T12:47:01.331Z,6.46
2023-09-18T12:48:04.583Z,5.72
2023-09-18T12:49:18.753Z,6.17
2023-09-18T12:50:21.284Z,6.10
2023-09-18T12:51:31.119Z,6.33
2023-09-18T12:52:33.302Z,5.13
2023-09-18T12:53:37.636Z,4.41
2023-09-18T12:54:46.597Z,4.64
2023-09-18T12:55:49.853Z,5.04
2023-09-18T12:56:52.269Z,4.38
2023-09-18T12:57:54.547Z,4.72
2023-09-18T12:59:11.683Z,5.78
2023-09-18T13:00:12.795Z,4.50
2023-09-18T13:01:17.381Z,5.56
2023-09-18T13:02:19.644Z,5.46
2023-09-18T13:03:24.575Z,9.63
2023-09-18T13:04:26.959Z,4.56
2023-09-18T13:05:29.452Z,5.01
2023-09-18T13:06:32.849Z,5.71
2023-09-18T13:07:38.547Z,4.68
2023-09-18T13:08:43.254Z,5.30
2023-09-18T13:10:06.624Z,7.15
2023-09-18T13:11:09.452Z,8.12
2023-09-18T13:12:11.490Z,6.33
2023-09-18T13:13:19.444Z,7.08
2023-09-18T13:14:25.216Z,4.64
2023-09-18T13:15:29.253Z,5.21
2023-09-18T13:16:31.639Z,5.31
2023-09-18T13:18:51.424Z,6.43
2023-09-18T13:19:53.495Z,5.31
2023-09-18T13:20:58.695Z,7.16
2023-09-18T13:22:02.686Z,5.49
2023-09-18T13:23:05.628Z,5.50
2023-09-18T13:24:10.288Z,5.59
2023-09-18T13:25:16.652Z,5.87
2023-09-18T13:26:18.982Z,8.60
2023-09-18T13:27:20.971Z,6.97
2023-09-18T13:28:22.935Z,5.32
2023-09-18T13:29:25.671Z,10.79
2023-09-18T13:30:28.799Z,6.56
2023-09-18T13:31:30.831Z,6.93
2023-09-18T13:32:41.248Z,5.15
2023-09-18T13:33:45.050Z,5.86
2023-09-18T13:34:47.238Z,5.81
2023-09-18T13:35:50.125Z,8.43
2023-09-18T13:36:52.289Z,5.29
2023-09-18T13:37:54.201Z,7.62
2023-09-18T13:38:56.146Z,4.29
2023-09-18T13:40:00.236Z,6.68
2023-09-18T13:41:03.179Z,6.45
2023-09-18T13:42:06.104Z,6.19
2023-09-18T13:43:12.096Z,5.36
2023-09-18T13:44:14.145Z,5.57
2023-09-18T13:45:16.168Z,5.78
2023-09-18T13:46:19.441Z,5.85
2023-09-18T13:47:21.551Z,6.62
2023-09-18T13:48:23.626Z,5.88
2023-09-18T13:49:28.775Z,9.11
2023-09-18T13:50:30.108Z,4.87
2023-09-18T13:51:35.054Z,5.79
2023-09-18T13:52:38.237Z,5.14
2023-09-18T13:53:40.261Z,5.28
2023-09-18T13:54:42.261Z,7.33
2023-09-18T13:55:47.228Z,5.03
2023-09-18T13:56:49.467Z,6.41
2023-09-18T13:57:52.024Z,5.81
2023-09-18T13:58:56.854Z,7.31
2023-09-18T14:00:01.813Z,9.71
2023-09-18T14:01:04.167Z,7.88
2023-09-18T14:02:06.143Z,6.57